Time;durP1;ratioP1;P1;durP2;ratioP2;P2;SDS_P1;SDS_P2;PMS_P1;PMS_P2;Temp;Humidity;BMP_temperature;BMP_pressure;BME280_temperature;BME280_humidity;BME280_pressure;Samples;Min_cycle;Max_cycle;Signal;HPM_P1;HPM_P2
2022/11/01 00:01:51;;;;;;;;;;;;;;;14.78;77.80;100836.63;5099773;28;19931;-71
2022/11/01 00:04:18;;;;;;;;;;;;;;;14.77;77.93;100829.59;5106773;28;19924;-70
2022/11/01 00:06:45;;;;;;;;;;;;;;;14.79;77.83;100825.06;5106099;28;19924;-70
2022/11/01 00:09:12;;;;;;;;;;;;;;;14.78;78.03;100831.31;5102157;28;20428;-71
2022/11/01 00:11:39;;;;;;;;;;;;;;;14.78;78.02;100828.66;5109209;28;19928;-70
2022/11/01 00:14:07;;;;;;;;;;;;;;;14.80;78.11;100826.78;5099463;28;20022;-70
2022/11/01 00:16:35;;;;;;;;;;;;;;;14.81;78.06;100815.22;5099162;28;19989;-70
2022/11/01 00:19:02;;;;;;;;;;;;;;;14.82;77.98;100821.41;5098502;28;19924;-71
2022/11/01 00:21:29;;;;;;;;;;;;;;;14.82;78.09;100811.63;5094256;28;20386;-70
2022/11/01 00:23:56;;;;;;;;;;;;;;;14.84;78.04;100806.28;5110743;28;20297;-70
2022/11/01 00:26:24;;;;;;;;;;;;;;;14.86;78.15;100801.72;5110471;28;19946;-71
2022/11/01 00:28:52;;;;;;;;;;;;;;;14.88;78.13;100808.69;5111793;28;19928;-70
2022/11/01 00:31:20;;;;;;;;;;;;;;;14.90;77.94;100798.84;5099712;28;19924;-70
2022/11/01 00:33:47;;;;;;;;;;;;;;;14.93;77.94;100804.94;5108189;28;19928;-70
2022/11/01 00:36:14;;;;;;;;;;;;;;;14.95;77.91;100803.06;5111466;28;19924;-70
2022/11/01 00:38:41;;;;;;;;;;;;;;;14.95;77.89;100801.31;5112183;28;19924;-70
2022/11/01 00:41:08;;;;;;;;;;;;;;;14.96;78.14;100799.50;5099536;28;19931;-69
2022/11/01 00:43:36;;;;;;;;;;;;;;;14.96;78.03;100799.50;5111442;28;19924;-70
2022/11/01 00:46:03;;;;;;;;;;;;;;;14.95;78.23;100789.81;5109611;28;19937;-70
2022/11/01 00:48:31;;;;;;;;;;;;;;;14.95;78.36;100781.84;5102944;28;19924;-70
2022/11/01 00:50:58;;;;;;;;;;;;;;;14.97;78.45;100782.63;5111290;28;19924;-70
2022/11/01 00:53:25;;;;;;;;;;;;;;;14.97;78.56;100788.78;5112195;27;19924;-70
2022/11/01 00:55:52;;;;;;;;;;;;;;;14.95;78.73;100777.41;5107553;28;20490;-70
2022/11/01 00:58:19;;;;;;;;;;;;;;;14.94;78.95;100772.16;5114798;28;19924;-70
2022/11/01 01:00:46;;;;;;;;;;;;;;;14.91;79.30;100766.06;5107389;28;19947;-70
2022/11/01 01:03:13;;;;;;;;;;;;;;;14.91;79.39;100773.19;5095268;28;19924;-70
2022/11/01 01:05:40;;;;;;;;;;;;;;;14.90;79.49;100768.81;5095361;28;19929;-70
2022/11/01 01:08:07;;;;;;;;;;;;;;;14.91;79.82;100767.88;5113692;28;19933;-71
2022/11/01 01:10:35;;;;;;;;;;;;;;;14.92;79.81;100761.63;5113781;28;19924;-70
2022/11/01 01:13:02;;;;;;;;;;;;;;;14.93;79.81;100768.66;5109682;28;20007;-70
2022/11/01 01:15:30;;;;;;;;;;;;;;;14.96;80.00;100771.13;5110456;27;19924;-70
2022/11/01 01:17:57;;;;;;;;;;;;;;;14.98;80.03;100769.28;5121668;27;19929;-70
2022/11/01 01:20:24;;;;;;;;;;;;;;;15.01;79.87;100766.47;5103976;28;19924;-70
2022/11/01 01:22:52;;;;;;;;;;;;;;;15.05;79.82;100764.53;5114237;28;20017;-71
2022/11/01 01:25:19;;;;;;;;;;;;;;;15.05;79.74;100769.84;5113737;27;19923;-70
2022/11/01 01:27:47;;;;;;;;;;;;;;;15.05;79.70;100759.22;5113765;28;19927;-70
2022/11/01 01:30:14;;;;;;;;;;;;;;;15.04;79.80;100769.00;5107327;28;20420;-70
2022/11/01 01:32:41;;;;;;;;;;;;;;;15.04;79.80;100765.47;5106212;27;19924;-70
2022/11/01 01:35:09;;;;;;;;;;;;;;;15.03;79.85;100756.66;5094753;28;19931;-70
2022/11/01 01:37:36;;;;;;;;;;;;;;;15.05;79.92;100761.88;5107988;28;20408;-70
2022/11/01 01:40:06;;;;;;;;;;;;;;;15.04;80.06;100769.00;5104691;28;20464;-70
2022/11/01 01:42:37;;;;;;;;;;;;;;;15.04;79.93;100758.38;5111680;28;19924;-70
2022/11/01 01:45:04;;;;;;;;;;;;;;;15.03;80.26;100751.34;5113048;28;19955;-70
2022/11/01 01:47:34;;;;;;;;;;;;;;;15.02;80.10;100746.09;5108059;28;19935;-70
2022/11/01 01:50:32;;;;;;;;;;;;;;;15.02;80.61;100746.97;5114433;27;19928;-70
2022/11/01 01:53:05;;;;;;;;;;;;;;;15.04;81.01;100742.44;5112183;28;19967;-70
2022/11/01 01:55:39;;;;;;;;;;;;;;;15.07;81.13;100749.38;5113487;28;19930;-70
2022/11/01 01:58:09;;;;;;;;;;;;;;;15.07;81.20;100741.41;5111529;27;20003;-70
2022/11/01 02:00:37;;;;;;;;;;;;;;;15.09;81.33;100742.22;5106127;28;19932;-70
2022/11/01 02:03:05;;;;;;;;;;;;;;;15.12;81.51;100743.84;5103738;27;20373;-70
2022/11/01 02:05:47;;;;;;;;;;;;;;;15.16;81.92;100743.59;5114903;27;19970;-70
2022/11/01 02:08:25;;;;;;;;;;;;;;;15.16;81.76;100740.94;5112362;28;19924;-70
2022/11/01 02:10:59;;;;;;;;;;;;;;;15.19;82.18;100742.56;5114269;28;19924;-71
2022/11/01 02:13:27;;;;;;;;;;;;;;;15.20;82.32;100742.53;5108259;28;19928;-70
2022/11/01 02:16:17;;;;;;;;;;;;;;;15.24;82.69;100743.22;5106150;28;19924;-70
2022/11/01 02:18:58;;;;;;;;;;;;;;;15.29;82.99;100741.16;5103793;28;20381;-70
2022/11/01 02:22:00;;;;;;;;;;;;;;;15.33;82.70;100742.75;5113788;28;20316;-70
2022/11/01 02:24:48;;;;;;;;;;;;;;;15.38;82.96;100738.03;5114598;27;19924;-70
2022/11/01 02:27:47;;;;;;;;;;;;;;;15.42;83.18;100745.84;5113081;27;19928;-70
2022/11/01 02:30:17;;;;;;;;;;;;;;;15.42;83.13;100749.34;5112292;28;20317;-70
2022/11/01 02:32:56;;;;;;;;;;;;;;;15.45;83.06;100754.50;5102627;27;19924;-71
2022/11/01 02:36:10;;;;;;;;;;;;;;;15.51;83.26;100750.69;5099085;28;19974;-70
2022/11/01 02:38:50;;;;;;;;;;;;;;;15.62;83.54;100750.97;5103487;28;20386;-70
2022/11/01 02:41:31;;;;;;;;;;;;;;;15.69;83.54;100751.50;5112986;28;19977;-70
2022/11/01 02:44:03;;;;;;;;;;;;;;;15.76;83.40;100750.22;5114002;28;19924;-70
2022/11/01 02:49:23;;;;;;;;;;;;;;;15.91;83.20;100753.06;5114100;27;19924;-70
2022/11/01 02:51:51;;;;;;;;;;;;;;;15.94;83.09;100750.19;5100998;28;19928;-70
2022/11/01 02:54:27;;;;;;;;;;;;;;;15.98;83.07;100741.13;5114389;28;19924;-70
2022/11/01 02:57:01;;;;;;;;;;;;;;;15.99;82.58;100726.91;5107458;27;20668;-70
2022/11/01 02:59:29;;;;;;;;;;;;;;;15.99;82.38;100734.88;5111117;27;19923;-71
2022/11/01 03:02:00;;;;;;;;;;;;;;;15.99;82.23;100734.88;5109710;28;19928;-71
2022/11/01 03:04:27;;;;;;;;;;;;;;;15.97;82.25;100747.38;5110755;28;19924;-70
2022/11/01 03:06:59;;;;;;;;;;;;;;;15.95;82.29;100744.81;5106556;28;19931;-71
2022/11/01 03:09:29;;;;;;;;;;;;;;;15.93;82.22;100745.81;5112597;28;20366;-71
2022/11/01 03:12:03;;;;;;;;;;;;;;;15.90;82.29;100743.34;5109758;27;19924;-70
2022/11/01 03:14:48;;;;;;;;;;;;;;;15.92;82.34;100747.63;5101884;28;20431;-70
2022/11/01 03:17:32;;;;;;;;;;;;;;;15.93;82.64;100746.69;5110461;28;20363;-70
2022/11/01 03:20:02;;;;;;;;;;;;;;;15.99;82.60;100749.00;5108128;28;20608;-70
2022/11/01 03:22:34;;;;;;;;;;;;;;;16.03;82.54;100747.03;5107622;27;20393;-70
2022/11/01 03:28:15;;;;;;;;;;;;;;;16.09;82.29;100753.81;5110987;27;19924;-71
2022/11/01 03:30:49;;;;;;;;;;;;;;;16.09;82.39;100762.69;5112310;28;20377;-70
2022/11/01 03:33:17;;;;;;;;;;;;;;;16.09;82.36;100760.03;5103074;28;19932;-70
2022/11/01 03:35:48;;;;;;;;;;;;;;;16.10;82.17;100759.09;5112359;27;20312;-71
2022/11/01 03:38:20;;;;;;;;;;;;;;;16.11;82.24;100757.25;5112827;28;19930;-70
2022/11/01 03:40:51;;;;;;;;;;;;;;;16.14;82.31;100762.44;5112060;28;20309;-70
2022/11/01 03:43:23;;;;;;;;;;;;;;;16.17;82.07;100770.25;5093731;28;19924;-70
2022/11/01 03:45:50;;;;;;;;;;;;;;;16.18;81.98;100765.78;5098231;28;20321;-70
2022/11/01 03:48:17;;;;;;;;;;;;;;;16.17;82.10;100764.06;5109538;28;19993;-71
2022/11/01 03:50:49;;;;;;;;;;;;;;;16.17;81.92;100761.38;5110424;27;19927;-70
2022/11/01 03:53:16;;;;;;;;;;;;;;;16.19;81.77;100778.97;5104316;28;19924;-71
2022/11/01 03:55:43;;;;;;;;;;;;;;;16.21;81.85;100776.25;5112760;28;20341;-71
2022/11/01 03:58:10;;;;;;;;;;;;;;;16.21;81.59;100781.56;5092392;28;19924;-70
2022/11/01 04:00:45;;;;;;;;;;;;;;;16.21;81.60;100786.88;5095060;28;21585;-71
2022/11/01 04:03:13;;;;;;;;;;;;;;;16.23;81.64;100796.50;5092638;28;20357;-71
2022/11/01 04:05:41;;;;;;;;;;;;;;;16.26;81.61;100800.78;5109369;28;19930;-70
2022/11/01 04:08:10;;;;;;;;;;;;;;;16.29;81.66;100811.25;5112126;28;20368;-70
2022/11/01 04:10:37;;;;;;;;;;;;;;;16.30;81.57;100810.31;5094485;28;20333;-70
2022/11/01 04:13:04;;;;;;;;;;;;;;;16.28;81.41;100818.34;5111422;28;19924;-70
2022/11/01 04:21:10;;;;;;;;;;;;;;;16.30;79.34;100832.44;5112008;27;19924;-70
2022/11/01 04:23:38;;;;;;;;;;;;;;;16.25;79.09;100837.16;5110053;28;19928;-71
2022/11/01 04:26:06;;;;;;;;;;;;;;;16.24;78.48;100856.72;5110843;28;19973;-70
2022/11/01 04:28:33;;;;;;;;;;;;;;;16.26;75.58;100862.81;5111697;28;19923;-71
2022/11/01 04:31:00;;;;;;;;;;;;;;;16.26;73.70;100875.25;5109995;27;20398;-71
2022/11/01 04:33:27;;;;;;;;;;;;;;;16.21;71.88;100878.16;5105980;28;19938;-71
2022/11/01 04:35:55;;;;;;;;;;;;;;;16.13;72.31;100896.31;5111428;28;19931;-70
2022/11/01 04:38:23;;;;;;;;;;;;;;;16.04;72.01;100894.16;5111033;28;20007;-71
2022/11/01 04:40:50;;;;;;;;;;;;;;;15.95;71.16;100906.13;5112382;27;19924;-70
2022/11/01 04:43:17;;;;;;;;;;;;;;;15.89;68.83;100915.28;5111360;28;19924;-71
2022/11/01 04:45:52;;;;;;;;;;;;;;;15.83;68.14;100928.84;5107172;28;20380;-70
2022/11/01 04:48:19;;;;;;;;;;;;;;;15.78;68.19;100920.25;5102170;27;19958;-70
2022/11/01 04:50:46;;;;;;;;;;;;;;;15.70;67.93;100923.31;5110494;28;19924;-70
2022/11/01 04:53:14;;;;;;;;;;;;;;;15.61;69.07;100918.47;5110929;27;20431;-70
2022/11/01 04:55:41;;;;;;;;;;;;;;;15.48;69.30;100927.03;5111697;28;19928;-70
2022/11/01 04:58:09;;;;;;;;;;;;;;;15.39;68.74;100938.13;5110577;28;19930;-70
2022/11/01 05:00:42;;;;;;;;;;;;;;;15.32;68.86;100942.00;5107398;28;20023;-70
2022/11/01 05:03:10;;;;;;;;;;;;;;;15.25;68.63;100948.53;5100377;28;19924;-70
2022/11/01 05:05:38;;;;;;;;;;;;;;;15.17;68.70;100952.44;5111475;28;19924;-70
2022/11/01 05:08:10;;;;;;;;;;;;;;;15.10;68.19;100966.94;5111571;27;19924;-70
2022/11/01 05:10:42;;;;;;;;;;;;;;;15.05;68.45;100968.94;5107890;28;19924;-70
2022/11/01 05:13:11;;;;;;;;;;;;;;;15.01;67.06;100972.66;5103786;28;20038;-70
2022/11/01 05:15:38;;;;;;;;;;;;;;;14.97;67.18;100987.03;5104112;28;19947;-70
2022/11/01 05:18:09;;;;;;;;;;;;;;;14.91;66.78;100989.00;5101029;28;19928;-70
2022/11/01 05:20:37;;;;;;;;;;;;;;;14.87;66.57;101003.38;5109025;28;20412;-70
2022/11/01 05:23:04;;;;;;;;;;;;;;;14.81;67.02;101000.13;5097758;28;20028;-70
2022/11/01 05:25:32;;;;;;;;;;;;;;;14.74;67.17;101019.00;5107560;28;19931;-70
2022/11/01 05:28:07;;;;;;;;;;;;;;;14.72;65.83;101022.63;5111210;27;19923;-70
2022/11/01 05:30:35;;;;;;;;;;;;;;;14.67;64.86;101027.31;5110287;28;19930;-70
2022/11/01 05:33:04;;;;;;;;;;;;;;;14.65;65.37;101031.78;5098912;28;19923;-70
2022/11/01 05:35:33;;;;;;;;;;;;;;;14.63;65.26;101033.63;5099899;28;19924;-70
2022/11/01 05:38:02;;;;;;;;;;;;;;;14.57;65.83;101035.63;5097742;28;19931;-71
2022/11/01 05:40:30;;;;;;;;;;;;;;;14.52;65.96;101034.97;5104395;28;19962;-71
2022/11/01 05:42:57;;;;;;;;;;;;;;;14.48;66.21;101046.66;5098870;28;19924;-71
2022/11/01 05:45:25;;;;;;;;;;;;;;;14.43;67.04;101033.59;5107864;28;19923;-71
2022/11/01 05:47:52;;;;;;;;;;;;;;;14.42;67.56;101041.59;5103863;28;20066;-70
2022/11/01 05:50:19;;;;;;;;;;;;;;;14.42;68.32;101041.59;5105064;28;20786;-70
2022/11/01 05:52:46;;;;;;;;;;;;;;;14.40;67.43;101041.66;5104516;27;19924;-70
2022/11/01 05:55:13;;;;;;;;;;;;;;;14.40;67.04;101054.06;5118667;27;20237;-69
2022/11/01 05:57:40;;;;;;;;;;;;;;;14.35;66.93;101059.56;5114154;28;19924;-70
2022/11/01 06:00:08;;;;;;;;;;;;;;;14.28;67.11;101063.41;5114912;27;20354;-70
2022/11/01 06:02:38;;;;;;;;;;;;;;;14.23;67.06;101065.41;5113784;28;19928;-69
2022/11/01 06:05:05;;;;;;;;;;;;;;;14.16;67.50;101069.22;5105100;28;19955;-69
2022/11/01 06:07:34;;;;;;;;;;;;;;;14.08;67.63;101065.09;5106395;28;19930;-70
2022/11/01 06:10:03;;;;;;;;;;;;;;;13.99;67.96;101065.47;5104714;27;20668;-70
2022/11/01 06:12:30;;;;;;;;;;;;;;;13.94;68.15;101072.75;5106429;27;19958;-70
2022/11/01 06:14:57;;;;;;;;;;;;;;;13.89;68.25;101087.97;5102881;28;19924;-70
2022/11/01 06:17:24;;;;;;;;;;;;;;;13.80;68.54;101084.78;5101969;27;20016;-70
2022/11/01 06:19:51;;;;;;;;;;;;;;;13.75;68.49;101086.75;5102677;28;19935;-70
2022/11/01 06:22:18;;;;;;;;;;;;;;;13.71;68.51;101089.56;5108882;28;19924;-70
2022/11/01 06:24:45;;;;;;;;;;;;;;;13.66;68.27;101092.41;5098159;28;19928;-70
2022/11/01 06:27:12;;;;;;;;;;;;;;;13.62;67.95;101098.75;5099457;28;19998;-70
2022/11/01 06:29:39;;;;;;;;;;;;;;;13.62;67.36;101096.13;5099134;28;19931;-70
2022/11/01 06:32:06;;;;;;;;;;;;;;;13.63;67.45;101101.34;5101683;28;19924;-70
2022/11/01 06:34:34;;;;;;;;;;;;;;;13.63;67.42;101108.44;5102984;28;19970;-70
2022/11/01 06:37:01;;;;;;;;;;;;;;;13.60;67.29;101114.69;5097012;28;19930;-70
2022/11/01 06:39:28;;;;;;;;;;;;;;;13.56;67.44;101128.13;5105007;27;19924;-70
2022/11/01 06:41:57;;;;;;;;;;;;;;;13.55;66.92;101124.63;5092425;28;19927;-70
2022/11/01 06:44:24;;;;;;;;;;;;;;;13.53;67.14;101130.91;5091745;28;19963;-70
2022/11/01 06:46:53;;;;;;;;;;;;;;;13.50;66.97;101137.16;5092201;28;19936;-71
2022/11/01 06:49:20;;;;;;;;;;;;;;;13.47;67.13;101132.00;5112423;28;20026;-70
2022/11/01 06:51:47;;;;;;;;;;;;;;;13.47;66.63;101134.66;5093195;28;19930;-70
2022/11/01 06:54:15;;;;;;;;;;;;;;;13.45;66.73;101137.34;5104059;27;20010;-70
2022/11/01 06:56:42;;;;;;;;;;;;;;;13.43;66.96;101141.81;5119189;27;19928;-71
2022/11/01 06:59:09;;;;;;;;;;;;;;;13.42;66.88;101148.06;5112995;27;19931;-70
2022/11/01 07:01:36;;;;;;;;;;;;;;;13.39;67.07;101141.97;5106345;28;19924;-71
2022/11/01 07:04:03;;;;;;;;;;;;;;;13.34;67.37;101145.66;5110148;28;19923;-71
2022/11/01 07:06:32;;;;;;;;;;;;;;;13.30;67.61;101159.94;5108217;28;19955;-70
2022/11/01 07:08:59;;;;;;;;;;;;;;;13.30;67.65;101165.22;5092978;28;19928;-71
2022/11/01 07:11:26;;;;;;;;;;;;;;;13.30;67.88;101173.16;5098512;28;19924;-70
2022/11/01 07:13:58;;;;;;;;;;;;;;;13.31;67.91;101176.69;5095973;28;19932;-71
2022/11/01 07:16:44;;;;;;;;;;;;;;;13.33;68.07;101182.75;5096674;27;19924;-70
2022/11/01 07:19:11;;;;;;;;;;;;;;;13.38;68.04;101187.94;5111330;28;19934;-70
2022/11/01 07:21:38;;;;;;;;;;;;;;;13.41;68.15;101188.72;5106303;28;19924;-70
2022/11/01 07:24:05;;;;;;;;;;;;;;;13.45;68.27;101195.59;5106568;28;19947;-70
2022/11/01 07:26:32;;;;;;;;;;;;;;;13.48;68.31;101200.78;5101924;28;20398;-70
2022/11/01 07:28:59;;;;;;;;;;;;;;;13.49;68.47;101197.22;5101667;28;19997;-70
2022/11/01 07:31:26;;;;;;;;;;;;;;;13.57;67.81;101212.84;5100675;28;20054;-70
2022/11/01 07:33:53;;;;;;;;;;;;;;;13.58;68.18;101214.53;5101445;27;20433;-70
2022/11/01 07:36:20;;;;;;;;;;;;;;;13.61;68.39;101218.88;5104665;28;19924;-70
2022/11/01 07:38:47;;;;;;;;;;;;;;;13.61;68.53;101230.34;5100598;28;19924;-70
2022/11/01 07:41:14;;;;;;;;;;;;;;;13.63;68.53;101231.16;5107995;27;20329;-70
2022/11/01 07:43:41;;;;;;;;;;;;;;;13.65;68.46;101231.09;5102798;27;19924;-70
2022/11/01 07:46:08;;;;;;;;;;;;;;;13.66;68.56;101238.13;5095095;28;20383;-70
2022/11/01 07:48:35;;;;;;;;;;;;;;;13.67;68.34;101250.44;5107197;27;19924;-70
2022/11/01 07:51:04;;;;;;;;;;;;;;;13.68;68.32;101241.56;5104720;28;20397;-70
2022/11/01 07:53:32;;;;;;;;;;;;;;;13.70;68.20;101250.34;5102253;28;19928;-70
2022/11/01 07:56:00;;;;;;;;;;;;;;;13.71;68.10;101252.06;5105981;28;19924;-70
2022/11/01 07:58:28;;;;;;;;;;;;;;;13.73;67.79;101254.66;5098841;28;20428;-70
2022/11/01 08:00:55;;;;;;;;;;;;;;;13.75;67.33;101264.25;5100743;28;19931;-70
2022/11/01 08:03:22;;;;;;;;;;;;;;;13.80;66.67;101261.44;5097706;28;20402;-70
2022/11/01 08:05:49;;;;;;;;;;;;;;;13.79;67.01;101262.34;5105874;28;19977;-70
2022/11/01 08:08:17;;;;;;;;;;;;;;;13.80;66.88;101261.44;5105412;28;19946;-70
2022/11/01 08:10:44;;;;;;;;;;;;;;;13.82;66.72;101267.56;5107430;28;19923;-70
2022/11/01 08:13:20;;;;;;;;;;;;;;;13.85;66.85;101269.22;5113057;28;19924;-70
2022/11/01 08:15:52;;;;;;;;;;;;;;;13.86;66.86;101271.84;5111146;28;20020;-70
2022/11/01 08:18:24;;;;;;;;;;;;;;;13.89;66.65;101276.16;5103188;28;20419;-71
2022/11/01 08:20:51;;;;;;;;;;;;;;;13.91;66.33;101271.66;5097666;27;19931;-71
2022/11/01 08:23:19;;;;;;;;;;;;;;;13.93;66.10;101275.13;5105835;27;19923;-71
2022/11/01 08:25:46;;;;;;;;;;;;;;;13.97;65.41;101284.66;5092239;28;19955;-71
2022/11/01 08:28:17;;;;;;;;;;;;;;;13.99;65.08;101293.44;5104237;28;19924;-71
2022/11/01 08:30:46;;;;;;;;;;;;;;;13.97;65.27;101304.09;5111910;28;19935;-70
2022/11/01 08:33:13;;;;;;;;;;;;;;;13.97;65.01;101290.84;5112324;28;19924;-71
2022/11/01 08:35:40;;;;;;;;;;;;;;;14.01;65.15;101302.19;5094978;27;19974;-71
2022/11/01 08:38:14;;;;;;;;;;;;;;;14.05;65.13;101308.25;5099009;28;19989;-71
2022/11/01 08:40:41;;;;;;;;;;;;;;;14.07;64.86;101309.91;5111866;28;19931;-71
2022/11/01 08:43:08;;;;;;;;;;;;;;;14.10;64.61;101316.88;5108559;27;19924;-71
2022/11/01 08:45:35;;;;;;;;;;;;;;;14.13;64.48;101311.47;5112451;27;19923;-71
2022/11/01 08:48:04;;;;;;;;;;;;;;;14.17;64.03;101315.75;5096392;28;19928;-71
2022/11/01 08:50:33;;;;;;;;;;;;;;;14.20;63.72;101305.00;5109550;27;19955;-72
2022/11/01 08:53:08;;;;;;;;;;;;;;;14.25;63.71;101312.78;5109778;27;20420;-72
2022/11/01 08:55:36;;;;;;;;;;;;;;;14.28;63.29;101310.91;5098799;27;19924;-71
2022/11/01 08:58:05;;;;;;;;;;;;;;;14.31;63.85;101319.63;5109044;28;19928;-72
2022/11/01 09:00:34;;;;;;;;;;;;;;;14.36;63.36;101317.69;5091645;28;19990;-72
2022/11/01 09:03:01;;;;;;;;;;;;;;;14.41;63.02;101326.31;5096441;28;19931;-72
2022/11/01 09:05:30;;;;;;;;;;;;;;;14.44;62.71;101328.84;5110332;28;19928;-72
2022/11/01 09:07:59;;;;;;;;;;;;;;;14.49;61.91;101326.03;5109211;28;20351;-72
2022/11/01 09:10:29;;;;;;;;;;;;;;;14.49;62.26;101318.94;5112407;28;19928;-72
2022/11/01 09:12:58;;;;;;;;;;;;;;;14.54;62.34;101324.06;5109249;28;19924;-72
2022/11/01 09:15:26;;;;;;;;;;;;;;;14.59;61.64;101320.31;5111012;27;20704;-72
2022/11/01 09:17:53;;;;;;;;;;;;;;;14.62;61.71;101321.97;5096348;28;19931;-72
2022/11/01 09:20:20;;;;;;;;;;;;;;;14.65;61.68;101328.94;5099986;28;20057;-72
2022/11/01 09:22:51;;;;;;;;;;;;;;;14.71;61.39;101331.38;5105906;27;19964;-71
2022/11/01 09:25:18;;;;;;;;;;;;;;;14.72;62.03;101330.44;5113888;28;19924;-72
2022/11/01 09:27:45;;;;;;;;;;;;;;;14.81;61.42;101326.56;5111746;27;19967;-73
2022/11/01 09:30:12;;;;;;;;;;;;;;;14.85;61.37;101334.34;5115692;28;19924;-72
2022/11/01 09:32:39;;;;;;;;;;;;;;;14.89;61.45;101338.63;5114675;28;19935;-73
2022/11/01 09:35:07;;;;;;;;;;;;;;;14.93;61.65;101338.47;5108955;28;19931;-71
2022/11/01 09:37:34;;;;;;;;;;;;;;;15.00;59.85;101337.31;5102120;28;19927;-72
2022/11/01 09:40:02;;;;;;;;;;;;;;;15.02;60.70;101346.94;5103661;28;20392;-72
2022/11/01 09:42:38;;;;;;;;;;;;;;;15.05;60.89;101346.81;5113340;28;19924;-71
2022/11/01 09:45:16;;;;;;;;;;;;;;;15.09;60.77;101354.63;5112261;28;20051;-72
2022/11/01 09:47:49;;;;;;;;;;;;;;;15.13;60.72;101353.59;5100051;28;19924;-72
2022/11/01 09:50:28;;;;;;;;;;;;;;;15.16;60.53;101356.13;5109260;28;20881;-71
2022/11/01 09:52:56;;;;;;;;;;;;;;;15.20;60.85;101363.03;5100576;28;19924;-71
2022/11/01 09:55:47;;;;;;;;;;;;;;;15.25;60.77;101361.06;5108240;28;19934;-71
2022/11/01 09:58:57;;;;;;;;;;;;;;;15.30;60.68;101363.53;5106419;28;19970;-71
2022/11/01 10:01:50;;;;;;;;;;;;;;;15.34;60.95;101366.00;5107688;27;19931;-71
2022/11/01 10:04:38;;;;;;;;;;;;;;;15.42;60.74;101367.44;5103181;27;19931;-72
2022/11/01 10:07:24;;;;;;;;;;;;;;;15.46;60.07;101369.91;5113088;27;19931;-72
2022/11/01 10:10:05;;;;;;;;;;;;;;;15.49;59.84;101384.84;5110220;28;19928;-71
2022/11/01 10:13:10;;;;;;;;;;;;;;;15.52;59.32;101395.34;5103641;27;19924;-71
2022/11/01 10:15:44;;;;;;;;;;;;;;;15.52;59.81;101390.03;5108815;27;19954;-72
2022/11/01 10:18:36;;;;;;;;;;;;;;;15.53;60.17;101413.88;5113013;28;19924;-72
2022/11/01 10:21:12;;;;;;;;;;;;;;;15.58;60.33;101407.53;5110526;27;19978;-72
2022/11/01 10:23:51;;;;;;;;;;;;;;;15.63;60.15;101413.50;5095910;28;19931;-72
2022/11/01 10:26:29;;;;;;;;;;;;;;;15.68;60.08;101411.53;5113153;28;19974;-71
2022/11/01 10:29:15;;;;;;;;;;;;;;;15.72;59.90;101407.78;5098447;27;19950;-72
2022/11/01 10:31:49;;;;;;;;;;;;;;;15.75;59.48;101406.81;5094171;28;20027;-72
2022/11/01 10:34:30;;;;;;;;;;;;;;;15.79;59.51;101419.91;5098396;28;20443;-71
2022/11/01 10:37:38;;;;;;;;;;;;;;;15.80;59.27;101418.97;5114145;28;19963;-72
2022/11/01 10:40:25;;;;;;;;;;;;;;;15.84;59.17;101403.78;5098242;28;19924;-72
2022/11/01 10:42:52;;;;;;;;;;;;;;;15.88;59.15;101431.09;5099731;27;20007;-72
2022/11/01 10:45:22;;;;;;;;;;;;;;;15.91;59.57;101428.31;5108528;28;19936;-71
2022/11/01 10:47:55;;;;;;;;;;;;;;;15.98;59.33;101432.41;5099603;28;19930;-73
2022/11/01 10:50:27;;;;;;;;;;;;;;;16.02;59.18;101423.38;5101983;28;19924;-71
2022/11/01 10:53:03;;;;;;;;;;;;;;;16.08;59.05;101422.22;5110755;28;19960;-72
2022/11/01 10:55:46;;;;;;;;;;;;;;;16.09;58.79;101422.19;5104386;27;20011;-71
2022/11/01 10:58:36;;;;;;;;;;;;;;;16.10;59.11;101423.03;5099039;28;20433;-72
2022/11/01 11:01:09;;;;;;;;;;;;;;;16.14;58.77;101414.00;5095981;27;19924;-72
2022/11/01 11:03:38;;;;;;;;;;;;;;;16.21;59.16;101417.25;5112393;27;19989;-71
2022/11/01 11:06:10;;;;;;;;;;;;;;;16.26;59.23;101405.47;5094227;27;19939;-72
2022/11/01 11:08:42;;;;;;;;;;;;;;;16.34;59.31;101409.56;5107305;28;19975;-71
2022/11/01 11:11:14;;;;;;;;;;;;;;;16.41;58.45;101406.56;5102832;27;19924;-72
2022/11/01 11:13:45;;;;;;;;;;;;;;;16.44;58.65;101403.75;5106340;28;19924;-71
2022/11/01 11:16:30;;;;;;;;;;;;;;;16.51;57.97;101422.09;5107779;28;20015;-71
2022/11/01 11:19:21;;;;;;;;;;;;;;;16.55;58.26;101426.34;5096660;28;19924;-71
2022/11/01 11:21:52;;;;;;;;;;;;;;;16.59;58.43;101420.81;5099402;28;19928;-72
2022/11/01 11:24:29;;;;;;;;;;;;;;;16.68;58.18;101416.84;5105567;28;19924;-72
2022/11/01 11:26:57;;;;;;;;;;;;;;;16.75;57.90;101412.97;5105651;28;19924;-71
2022/11/01 11:29:40;;;;;;;;;;;;;;;16.80;57.79;101415.41;5111817;28;19924;-72
2022/11/01 11:32:15;;;;;;;;;;;;;;;16.86;57.38;101417.78;5095784;28;20397;-72
2022/11/01 11:34:43;;;;;;;;;;;;;;;16.90;57.41;101419.34;5104894;28;19924;-70
2022/11/01 11:37:18;;;;;;;;;;;;;;;16.94;56.53;101413.91;5097835;27;20017;-71
2022/11/01 11:40:18;;;;;;;;;;;;;;;16.96;56.84;101418.22;5111064;27;19978;-71
2022/11/01 11:42:47;;;;;;;;;;;;;;;17.03;57.06;101416.13;5102930;28;20464;-72
2022/11/01 11:45:27;;;;;;;;;;;;;;;17.07;56.53;101415.06;5111868;27;20490;-72
2022/11/01 11:47:56;;;;;;;;;;;;;;;17.07;56.82;101415.91;5100752;28;20356;-71
2022/11/01 11:50:32;;;;;;;;;;;;;;;17.13;56.93;101411.25;5099726;27;19924;-71
2022/11/01 11:53:24;;;;;;;;;;;;;;;17.17;56.73;101412.81;5100160;28;19936;-72
2022/11/01 11:55:55;;;;;;;;;;;;;;;17.23;56.65;101409.84;5111529;28;20444;-72
2022/11/01 11:58:25;;;;;;;;;;;;;;;17.26;56.64;101411.50;5092635;28;19924;-72
2022/11/01 12:00:59;;;;;;;;;;;;;;;17.32;56.28;101411.19;5108534;28;19924;-72
2022/11/01 12:03:27;;;;;;;;;;;;;;;17.34;56.59;101418.19;5107196;28;19933;-72
2022/11/01 12:05:58;;;;;;;;;;;;;;;17.42;56.10;101419.59;5100538;27;19924;-72
2022/11/01 12:08:50;;;;;;;;;;;;;;;17.46;55.37;101415.81;5095956;28;19928;-72
2022/11/01 12:11:18;;;;;;;;;;;;;;;17.46;55.61;101421.16;5109327;27;19924;-72
2022/11/01 12:14:03;;;;;;;;;;;;;;;17.49;55.90;101415.66;5110496;28;20411;-72
2022/11/01 12:16:40;;;;;;;;;;;;;;;17.55;56.04;101415.34;5112951;27;19931;-71
2022/11/01 12:19:23;;;;;;;;;;;;;;;17.60;55.50;101410.66;5108770;28;19928;-72
2022/11/01 12:21:51;;;;;;;;;;;;;;;17.66;55.02;101406.81;5111211;27;19931;-72
2022/11/01 12:24:25;;;;;;;;;;;;;;;17.71;54.37;101415.44;5100807;28;19932;-72
2022/11/01 12:26:56;;;;;;;;;;;;;;;17.73;55.16;101420.72;5110117;28;19924;-71
2022/11/01 12:29:48;;;;;;;;;;;;;;;17.66;55.01;101414.81;5105118;28;19924;-72
2022/11/01 12:32:30;;;;;;;;;;;;;;;17.65;54.78;101421.09;5107043;27;19928;-71
2022/11/01 12:35:02;;;;;;;;;;;;;;;17.54;54.85;101418.97;5098344;28;19977;-71
2022/11/01 12:37:48;;;;;;;;;;;;;;;17.54;54.31;101421.66;5106791;28;20552;-71
2022/11/01 12:40:19;;;;;;;;;;;;;;;17.63;53.71;101422.97;5111344;27;19924;-72
2022/11/01 12:42:53;;;;;;;;;;;;;;;17.65;54.35;101413.09;5102654;28;19982;-72
2022/11/01 12:45:35;;;;;;;;;;;;;;;17.67;54.71;101424.53;5096882;28;19971;-71
2022/11/01 12:48:08;;;;;;;;;;;;;;;17.73;53.59;101415.38;5102751;28;20024;-71
2022/11/01 12:50:49;;;;;;;;;;;;;;;17.71;53.62;101412.75;5100923;28;19920;-71
2022/11/01 12:53:26;;;;;;;;;;;;;;;17.77;54.26;101417.81;5099103;28;19923;-71
2022/11/01 12:55:56;;;;;;;;;;;;;;;17.70;54.79;101417.25;5103782;27;20443;-71
2022/11/01 12:58:25;;;;;;;;;;;;;;;17.77;54.33;101422.25;5100336;28;19924;-71
2022/11/01 13:01:27;;;;;;;;;;;;;;;17.69;54.67;101415.53;5109129;28;19924;-71
2022/11/01 13:04:21;;;;;;;;;;;;;;;17.78;54.58;101408.88;5108598;27;19928;-72
2022/11/01 13:07:12;;;;;;;;;;;;;;;17.87;54.34;101410.16;5110823;27;20419;-72
2022/11/01 13:09:54;;;;;;;;;;;;;;;17.90;53.43;101395.84;5091994;28;19924;-71
2022/11/01 13:12:45;;;;;;;;;;;;;;;17.87;53.87;101398.66;5096835;28;19931;-70